Portada
METAR-TAF:

METAR-TAF

Aeroports :

Minneapolis-Crystal, Minnesota, Estats Units d'Amèrica

Crystal Airport

latitud: 45-03-45N, longitud: 093-21-03W, altitud: 264 m

Observació

L'informe es va fer fa 26 minuts, a les 01:53 UTC
Vent 3 kt del Est/Sud-Est
Temperatura 2°C
Humitat 75%
Pressió 1004 hPa
Visibilitat: 16.1 km
Cel clar

METAR: KMIC 190153Z 12003KT 10SM CLR 02/M02 A2966 RMK AO2 SLP053 T00221022

Hora: 20:19 (02:19 UTC)


TAF: manca

Observacions i pronòstics meteorològics de més de 4000 aeroports (METAR i TAF).

Les estacions disponibles són els punts grocs i vermells al mapa.

Posi el ratolí al punt desitjat per veure el nom de l'estació.

Feu clic per veure les observacions i els pronòstics meteorològics.

Per canviar el mapa: feu clic els botons verds amb una creu de color negre per apropar; al botó verd amb un guió per allunyar la imatge; o en les fletxes verdes per a mapes adjacents.


METAR-TAF: